sensor_id;sensor_type;location;lat;lon;timestamp;pressure;altitude;pressure_sealevel;temperature;humidity
11985;BME280;6052;53.246;10.368;2024-01-27T00:00:40;102279.38;;;6.94;100.00
11985;BME280;6052;53.246;10.368;2024-01-27T00:03:09;102286.44;;;6.87;100.00
11985;BME280;6052;53.246;10.368;2024-01-27T00:05:39;102283.91;;;6.93;100.00
11985;BME280;6052;53.246;10.368;2024-01-27T00:08:09;102288.94;;;6.80;100.00
11985;BME280;6052;53.246;10.368;2024-01-27T00:10:39;102290.28;;;6.76;100.00
11985;BME280;6052;53.246;10.368;2024-01-27T00:13:12;102284.81;;;6.70;100.00
11985;BME280;6052;53.246;10.368;2024-01-27T00:15:45;102282.59;;;6.81;100.00
11985;BME280;6052;53.246;10.368;2024-01-27T00:18:15;102292.97;;;6.76;100.00
11985;BME280;6052;53.246;10.368;2024-01-27T00:20:45;102292.00;;;6.69;100.00
11985;BME280;6052;53.246;10.368;2024-01-27T00:23:15;102287.94;;;6.81;100.00
11985;BME280;6052;53.246;10.368;2024-01-27T00:25:45;102281.59;;;6.82;100.00
11985;BME280;6052;53.246;10.368;2024-01-27T00:28:15;102282.78;;;6.80;100.00
11985;BME280;6052;53.246;10.368;2024-01-27T00:30:47;102283.63;;;6.80;100.00
11985;BME280;6052;53.246;10.368;2024-01-27T00:33:17;102286.34;;;6.64;100.00
11985;BME280;6052;53.246;10.368;2024-01-27T00:35:47;102287.13;;;6.81;100.00
11985;BME280;6052;53.246;10.368;2024-01-27T00:38:17;102292.50;;;6.65;100.00
11985;BME280;6052;53.246;10.368;2024-01-27T00:40:47;102304.03;;;6.57;100.00
11985;BME280;6052;53.246;10.368;2024-01-27T00:43:17;102300.31;;;6.74;100.00
11985;BME280;6052;53.246;10.368;2024-01-27T00:45:50;102301.19;;;6.67;100.00
11985;BME280;6052;53.246;10.368;2024-01-27T00:48:20;102303.31;;;6.71;100.00
11985;BME280;6052;53.246;10.368;2024-01-27T00:50:50;102310.53;;;6.55;100.00
11985;BME280;6052;53.246;10.368;2024-01-27T00:53:19;102314.53;;;6.67;100.00
11985;BME280;6052;53.246;10.368;2024-01-27T00:55:49;102333.47;;;6.80;100.00
11985;BME280;6052;53.246;10.368;2024-01-27T00:58:19;102328.69;;;6.67;100.00
11985;BME280;6052;53.246;10.368;2024-01-27T01:00:52;102334.16;;;6.82;100.00
11985;BME280;6052;53.246;10.368;2024-01-27T01:03:21;102336.75;;;6.98;100.00
11985;BME280;6052;53.246;10.368;2024-01-27T01:05:52;102341.78;;;6.85;100.00
11985;BME280;6052;53.246;10.368;2024-01-27T01:08:21;102345.31;;;6.77;100.00
11985;BME280;6052;53.246;10.368;2024-01-27T01:10:51;102350.19;;;6.66;100.00
11985;BME280;6052;53.246;10.368;2024-01-27T01:13:21;102351.56;;;6.62;100.00
11985;BME280;6052;53.246;10.368;2024-01-27T01:15:54;102357.69;;;6.70;100.00
11985;BME280;6052;53.246;10.368;2024-01-27T01:18:23;102340.84;;;6.78;100.00
11985;BME280;6052;53.246;10.368;2024-01-27T01:20:53;102343.19;;;6.73;100.00
11985;BME280;6052;53.246;10.368;2024-01-27T01:23:23;102340.19;;;6.68;100.00
11985;BME280;6052;53.246;10.368;2024-01-27T01:25:53;102356.47;;;6.89;100.00
11985;BME280;6052;53.246;10.368;2024-01-27T01:28:23;102356.47;;;6.89;100.00
11985;BME280;6052;53.246;10.368;2024-01-27T01:30:56;102360.13;;;6.96;100.00
11985;BME280;6052;53.246;10.368;2024-01-27T01:33:25;102359.19;;;6.81;100.00
11985;BME280;6052;53.246;10.368;2024-01-27T01:35:55;102362.19;;;6.78;100.00
11985;BME280;6052;53.246;10.368;2024-01-27T01:38:25;102363.13;;;6.85;100.00
11985;BME280;6052;53.246;10.368;2024-01-27T01:40:55;102372.53;;;6.81;100.00
11985;BME280;6052;53.246;10.368;2024-01-27T01:43:25;102373.66;;;6.86;100.00
11985;BME280;6052;53.246;10.368;2024-01-27T01:45:57;102375.81;;;6.91;100.00
11985;BME280;6052;53.246;10.368;2024-01-27T01:48:27;102378.50;;;6.83;100.00
11985;BME280;6052;53.246;10.368;2024-01-27T01:50:58;102387.69;;;6.88;100.00
11985;BME280;6052;53.246;10.368;2024-01-27T01:53:29;102382.66;;;6.93;100.00
11985;BME280;6052;53.246;10.368;2024-01-27T01:55:59;102383.69;;;6.84;100.00
11985;BME280;6052;53.246;10.368;2024-01-27T01:58:29;102386.06;;;7.18;100.00
11985;BME280;6052;53.246;10.368;2024-01-27T02:01:04;102397.75;;;7.17;100.00
11985;BME280;6052;53.246;10.368;2024-01-27T02:03:34;102402.47;;;6.99;100.00
11985;BME280;6052;53.246;10.368;2024-01-27T02:06:04;102407.09;;;7.13;100.00
11985;BME280;6052;53.246;10.368;2024-01-27T02:08:34;102409.13;;;7.11;100.00
11985;BME280;6052;53.246;10.368;2024-01-27T02:11:04;102409.94;;;7.11;100.00
11985;BME280;6052;53.246;10.368;2024-01-27T02:13:34;102403.94;;;7.17;100.00
11985;BME280;6052;53.246;10.368;2024-01-27T02:16:06;102409.28;;;7.09;100.00
11985;BME280;6052;53.246;10.368;2024-01-27T02:18:36;102408.44;;;7.09;100.00
11985;BME280;6052;53.246;10.368;2024-01-27T02:21:06;102417.78;;;7.05;100.00
11985;BME280;6052;53.246;10.368;2024-01-27T02:23:36;102423.66;;;6.92;100.00
11985;BME280;6052;53.246;10.368;2024-01-27T02:26:09;102434.84;;;6.96;100.00
11985;BME280;6052;53.246;10.368;2024-01-27T02:28:38;102439.81;;;7.15;100.00
11985;BME280;6052;53.246;10.368;2024-01-27T02:31:08;102436.16;;;7.00;100.00
11985;BME280;6052;53.246;10.368;2024-01-27T02:33:38;102432.63;;;7.07;100.00
11985;BME280;6052;53.246;10.368;2024-01-27T02:36:08;102428.28;;;7.14;100.00
11985;BME280;6052;53.246;10.368;2024-01-27T02:38:38;102422.97;;;7.06;100.00
11985;BME280;6052;53.246;10.368;2024-01-27T02:41:12;102427.84;;;6.95;100.00
11985;BME280;6052;53.246;10.368;2024-01-27T02:43:41;102432.84;;;6.90;100.00
11985;BME280;6052;53.246;10.368;2024-01-27T02:46:12;102424.66;;;6.99;100.00
11985;BME280;6052;53.246;10.368;2024-01-27T02:48:42;102439.66;;;7.08;100.00
11985;BME280;6052;53.246;10.368;2024-01-27T02:51:12;102443.53;;;6.98;100.00
11985;BME280;6052;53.246;10.368;2024-01-27T02:53:42;102443.50;;;7.06;100.00
11985;BME280;6052;53.246;10.368;2024-01-27T02:56:15;102443.31;;;7.07;100.00
11985;BME280;6052;53.246;10.368;2024-01-27T02:58:45;102458.84;;;7.04;100.00
11985;BME280;6052;53.246;10.368;2024-01-27T03:01:15;102450.19;;;7.02;100.00
11985;BME280;6052;53.246;10.368;2024-01-27T03:03:45;102458.03;;;7.03;100.00
11985;BME280;6052;53.246;10.368;2024-01-27T03:06:16;102452.69;;;6.95;100.00
11985;BME280;6052;53.246;10.368;2024-01-27T03:08:45;102458.88;;;6.96;100.00
11985;BME280;6052;53.246;10.368;2024-01-27T03:11:18;102454.19;;;6.98;100.00
11985;BME280;6052;53.246;10.368;2024-01-27T03:13:48;102455.22;;;6.89;100.00
11985;BME280;6052;53.246;10.368;2024-01-27T03:16:18;102460.72;;;6.95;100.00
11985;BME280;6052;53.246;10.368;2024-01-27T03:18:47;102452.69;;;6.95;100.00
11985;BME280;6052;53.246;10.368;2024-01-27T03:21:17;102461.34;;;6.97;100.00
11985;BME280;6052;53.246;10.368;2024-01-27T03:23:47;102461.69;;;7.02;100.00
11985;BME280;6052;53.246;10.368;2024-01-27T03:26:20;102459.69;;;6.96;100.00
11985;BME280;6052;53.246;10.368;2024-01-27T03:28:50;102467.88;;;6.95;100.00
11985;BME280;6052;53.246;10.368;2024-01-27T03:31:20;102470.06;;;6.91;100.00
11985;BME280;6052;53.246;10.368;2024-01-27T03:33:50;102475.06;;;6.86;100.00
11985;BME280;6052;53.246;10.368;2024-01-27T03:36:20;102462.84;;;7.00;100.00
11985;BME280;6052;53.246;10.368;2024-01-27T03:38:49;102451.69;;;6.96;100.00
11985;BME280;6052;53.246;10.368;2024-01-27T03:41:22;102465.22;;;6.87;100.00
11985;BME280;6052;53.246;10.368;2024-01-27T03:43:52;102475.75;;;6.80;100.00
11985;BME280;6052;53.246;10.368;2024-01-27T03:46:22;102478.56;;;6.87;100.00
11985;BME280;6052;53.246;10.368;2024-01-27T03:48:52;102488.56;;;6.85;100.00
11985;BME280;6052;53.246;10.368;2024-01-27T03:51:22;102485.09;;;6.84;100.00
11985;BME280;6052;53.246;10.368;2024-01-27T03:53:53;102479.91;;;6.91;100.00
11985;BME280;6052;53.246;10.368;2024-01-27T03:56:25;102482.22;;;6.94;100.00
11985;BME280;6052;53.246;10.368;2024-01-27T03:58:55;102488.41;;;6.86;100.00
11985;BME280;6052;53.246;10.368;2024-01-27T04:01:25;102491.91;;;6.87;100.00
11985;BME280;6052;53.246;10.368;2024-01-27T04:03:55;102490.72;;;6.97;100.00
11985;BME280;6052;53.246;10.368;2024-01-27T04:06:25;102490.75;;;6.81;100.00
11985;BME280;6052;53.246;10.368;2024-01-27T04:08:54;102491.25;;;6.85;100.00
11985;BME280;6052;53.246;10.368;2024-01-27T04:11:27;102489.94;;;6.81;100.00
11985;BME280;6052;53.246;10.368;2024-01-27T04:13:57;102487.75;;;6.68;100.00
11985;BME280;6052;53.246;10.368;2024-01-27T04:16:27;102497.94;;;6.65;100.00
11985;BME280;6052;53.246;10.368;2024-01-27T04:18:57;102488.09;;;6.89;100.00
11985;BME280;6052;53.246;10.368;2024-01-27T04:21:27;102502.25;;;6.66;100.00
11985;BME280;6052;53.246;10.368;2024-01-27T04:23:57;102506.75;;;6.81;100.00
11985;BME280;6052;53.246;10.368;2024-01-27T04:26:29;102513.59;;;6.84;100.00
11985;BME280;6052;53.246;10.368;2024-01-27T04:28:59;102515.28;;;6.77;100.00
11985;BME280;6052;53.246;10.368;2024-01-27T04:31:29;102515.13;;;6.78;100.00
11985;BME280;6052;53.246;10.368;2024-01-27T04:33:59;102510.78;;;6.85;100.00
11985;BME280;6052;53.246;10.368;2024-01-27T04:36:29;102515.25;;;6.61;100.00
11985;BME280;6052;53.246;10.368;2024-01-27T04:38:59;102512.59;;;6.69;100.00
11985;BME280;6052;53.246;10.368;2024-01-27T04:41:31;102519.94;;;6.75;100.00
11985;BME280;6052;53.246;10.368;2024-01-27T04:44:01;102522.94;;;6.80;100.00
11985;BME280;6052;53.246;10.368;2024-01-27T04:46:31;102514.09;;;6.63;100.00
11985;BME280;6052;53.246;10.368;2024-01-27T04:49:01;102519.63;;;6.62;100.00
11985;BME280;6052;53.246;10.368;2024-01-27T04:51:31;102516.09;;;6.37;100.00
11985;BME280;6052;53.246;10.368;2024-01-27T04:54:01;102505.94;;;6.65;100.00
11985;BME280;6052;53.246;10.368;2024-01-27T04:56:33;102514.09;;;6.63;100.00
11985;BME280;6052;53.246;10.368;2024-01-27T04:59:03;102516.63;;;6.57;100.00
11985;BME280;6052;53.246;10.368;2024-01-27T05:01:33;102520.59;;;6.45;100.00
11985;BME280;6052;53.246;10.368;2024-01-27T05:04:03;102510.44;;;6.40;100.00
11985;BME280;6052;53.246;10.368;2024-01-27T05:06:34;102522.94;;;6.48;100.00
11985;BME280;6052;53.246;10.368;2024-01-27T05:09:05;102525.59;;;6.48;100.00
11985;BME280;6052;53.246;10.368;2024-01-27T05:11:38;102532.09;;;6.45;100.00
11985;BME280;6052;53.246;10.368;2024-01-27T05:14:10;102522.94;;;6.48;100.00
11985;BME280;6052;53.246;10.368;2024-01-27T05:16:39;102522.09;;;6.39;100.00
11985;BME280;6052;53.246;10.368;2024-01-27T05:19:10;102524.44;;;6.34;100.00
11985;BME280;6052;53.246;10.368;2024-01-27T05:21:40;102538.59;;;6.43;100.00
11985;BME280;6052;53.246;10.368;2024-01-27T05:24:10;102526.09;;;6.35;100.00
11985;BME280;6052;53.246;10.368;2024-01-27T05:26:43;102537.91;;;6.41;100.00
11985;BME280;6052;53.246;10.368;2024-01-27T05:29:13;102545.09;;;6.40;100.00
11985;BME280;6052;53.246;10.368;2024-01-27T05:31:40;102546.78;;;6.49;100.00
11985;BME280;6052;53.246;10.368;2024-01-27T05:34:10;102551.72;;;6.20;100.00
11985;BME280;6052;53.246;10.368;2024-01-27T05:36:40;102549.59;;;6.40;100.00
11985;BME280;6052;53.246;10.368;2024-01-27T05:39:10;102548.59;;;6.49;100.00
11985;BME280;6052;53.246;10.368;2024-01-27T05:41:43;102558.59;;;6.39;100.00
11985;BME280;6052;53.246;10.368;2024-01-27T05:44:13;102553.03;;;6.24;100.00
11985;BME280;6052;53.246;10.368;2024-01-27T05:46:43;102560.41;;;6.30;100.00
11985;BME280;6052;53.246;10.368;2024-01-27T05:49:13;102559.38;;;6.23;100.00
11985;BME280;6052;53.246;10.368;2024-01-27T05:51:43;102562.25;;;6.38;100.00
11985;BME280;6052;53.246;10.368;2024-01-27T05:54:13;102553.75;;;6.26;100.00
11985;BME280;6052;53.246;10.368;2024-01-27T05:56:46;102571.88;;;6.15;100.00
11985;BME280;6052;53.246;10.368;2024-01-27T05:59:16;102585.34;;;6.13;100.00
11985;BME280;6052;53.246;10.368;2024-01-27T06:01:46;102580.22;;;6.20;100.00
11985;BME280;6052;53.246;10.368;2024-01-27T06:04:16;102579.44;;;6.35;100.00
11985;BME280;6052;53.246;10.368;2024-01-27T06:06:46;102575.03;;;6.18;100.00
11985;BME280;6052;53.246;10.368;2024-01-27T06:09:16;102572.72;;;6.23;100.00
11985;BME280;6052;53.246;10.368;2024-01-27T06:11:48;102584.34;;;6.06;100.00
11985;BME280;6052;53.246;10.368;2024-01-27T06:14:18;102582.53;;;6.15;100.00
11985;BME280;6052;53.246;10.368;2024-01-27T06:16:48;102596.25;;;6.28;100.00
11985;BME280;6052;53.246;10.368;2024-01-27T06:19:18;102590.88;;;6.20;100.00
11985;BME280;6052;53.246;10.368;2024-01-27T06:21:48;102601.38;;;6.21;100.00
11985;BME280;6052;53.246;10.368;2024-01-27T06:24:18;102616.09;;;6.41;100.00
11985;BME280;6052;53.246;10.368;2024-01-27T06:26:50;102621.06;;;6.20;100.00
11985;BME280;6052;53.246;10.368;2024-01-27T06:29:21;102610.72;;;6.25;100.00
11985;BME280;6052;53.246;10.368;2024-01-27T06:31:52;102607.09;;;6.42;100.00
11985;BME280;6052;53.246;10.368;2024-01-27T06:34:22;102620.91;;;6.30;100.00
11985;BME280;6052;53.246;10.368;2024-01-27T06:36:52;102619.53;;;6.26;100.00
11985;BME280;6052;53.246;10.368;2024-01-27T06:39:21;102619.53;;;6.18;100.00
11985;BME280;6052;53.246;10.368;2024-01-27T06:41:54;102610.38;;;6.28;100.00
11985;BME280;6052;53.246;10.368;2024-01-27T06:44:24;102622.03;;;6.19;100.00
11985;BME280;6052;53.246;10.368;2024-01-27T06:46:53;102626.94;;;6.32;100.00
11985;BME280;6052;53.246;10.368;2024-01-27T06:49:23;102630.75;;;6.37;100.00
11985;BME280;6052;53.246;10.368;2024-01-27T06:51:53;102648.91;;;6.34;100.00
11985;BME280;6052;53.246;10.368;2024-01-27T06:54:23;102654.06;;;6.27;100.00
11985;BME280;6052;53.246;10.368;2024-01-27T06:56:56;102654.38;;;6.24;100.00
11985;BME280;6052;53.246;10.368;2024-01-27T06:59:26;102652.25;;;6.28;100.00
11985;BME280;6052;53.246;10.368;2024-01-27T07:01:56;102642.63;;;6.09;100.00
11985;BME280;6052;53.246;10.368;2024-01-27T07:04:26;102660.00;;;6.13;100.00
11985;BME280;6052;53.246;10.368;2024-01-27T07:06:56;102660.44;;;6.01;100.00
11985;BME280;6052;53.246;10.368;2024-01-27T07:09:26;102669.44;;;6.00;100.00
11985;BME280;6052;53.246;10.368;2024-01-27T07:11:58;102658.78;;;6.00;100.00
11985;BME280;6052;53.246;10.368;2024-01-27T07:14:29;102660.41;;;5.93;100.00
11985;BME280;6052;53.246;10.368;2024-01-27T07:16:59;102652.78;;;5.98;100.00
11985;BME280;6052;53.246;10.368;2024-01-27T07:19:28;102659.34;;;5.86;100.00
11985;BME280;6052;53.246;10.368;2024-01-27T07:21:59;102666.84;;;5.82;100.00
11985;BME280;6052;53.246;10.368;2024-01-27T07:24:30;102662.31;;;5.83;100.00
11985;BME280;6052;53.246;10.368;2024-01-27T07:27:03;102665.50;;;5.61;100.00
11985;BME280;6052;53.246;10.368;2024-01-27T07:29:33;102663.53;;;5.88;100.00
11985;BME280;6052;53.246;10.368;2024-01-27T07:32:04;102665.88;;;5.91;100.00
11985;BME280;6052;53.246;10.368;2024-01-27T07:34:35;102682.66;;;5.84;100.00
11985;BME280;6052;53.246;10.368;2024-01-27T07:37:05;102679.38;;;5.90;100.00
11985;BME280;6052;53.246;10.368;2024-01-27T07:39:35;102691.63;;;5.83;100.00
11985;BME280;6052;53.246;10.368;2024-01-27T07:42:28;102691.97;;;6.05;100.00
11985;BME280;6052;53.246;10.368;2024-01-27T07:45:21;102702.97;;;5.85;100.00
11985;BME280;6052;53.246;10.368;2024-01-27T07:51:49;102697.34;;;5.70;100.00
11985;BME280;6052;53.246;10.368;2024-01-27T07:54:34;102692.72;;;5.72;100.00
11985;BME280;6052;53.246;10.368;2024-01-27T07:57:14;102694.22;;;5.75;100.00
11985;BME280;6052;53.246;10.368;2024-01-27T07:59:45;102701.84;;;5.87;100.00
11985;BME280;6052;53.246;10.368;2024-01-27T08:02:30;102696.50;;;5.87;100.00
11985;BME280;6052;53.246;10.368;2024-01-27T08:05:21;102705.75;;;6.34;100.00
11985;BME280;6052;53.246;10.368;2024-01-27T08:08:00;102714.94;;;6.40;100.00
11985;BME280;6052;53.246;10.368;2024-01-27T08:10:30;102708.44;;;6.34;100.00
11985;BME280;6052;53.246;10.368;2024-01-27T08:13:03;102709.03;;;6.62;100.00
11985;BME280;6052;53.246;10.368;2024-01-27T08:15:33;102713.59;;;6.85;100.00
11985;BME280;6052;53.246;10.368;2024-01-27T08:18:04;102707.09;;;6.88;100.00
11985;BME280;6052;53.246;10.368;2024-01-27T08:20:34;102710.16;;;7.33;100.00
11985;BME280;6052;53.246;10.368;2024-01-27T08:23:04;102713.63;;;7.89;100.00
11985;BME280;6052;53.246;10.368;2024-01-27T08:25:35;102706.38;;;8.68;100.00
11985;BME280;6052;53.246;10.368;2024-01-27T08:28:08;102708.13;;;8.84;100.00
11985;BME280;6052;53.246;10.368;2024-01-27T08:30:38;102714.50;;;7.74;100.00
11985;BME280;6052;53.246;10.368;2024-01-27T08:33:08;102728.16;;;7.07;100.00
11985;BME280;6052;53.246;10.368;2024-01-27T08:35:38;102723.44;;;6.77;100.00
11985;BME280;6052;53.246;10.368;2024-01-27T08:38:08;102725.59;;;6.81;100.00
11985;BME280;6052;53.246;10.368;2024-01-27T08:40:38;102729.03;;;6.58;100.00
11985;BME280;6052;53.246;10.368;2024-01-27T08:43:10;102723.75;;;6.74;100.00
11985;BME280;6052;53.246;10.368;2024-01-27T08:45:41;102734.41;;;6.74;100.00
11985;BME280;6052;53.246;10.368;2024-01-27T08:48:11;102736.41;;;6.72;100.00
11985;BME280;6052;53.246;10.368;2024-01-27T08:50:42;102742.38;;;6.66;100.00
11985;BME280;6052;53.246;10.368;2024-01-27T08:53:13;102741.13;;;6.94;100.00
11985;BME280;6052;53.246;10.368;2024-01-27T08:55:43;102742.78;;;6.79;100.00
11985;BME280;6052;53.246;10.368;2024-01-27T08:58:15;102757.50;;;6.91;100.00
11985;BME280;6052;53.246;10.368;2024-01-27T09:00:45;102746.63;;;6.84;100.00
11985;BME280;6052;53.246;10.368;2024-01-27T09:03:15;102753.16;;;6.98;100.00
11985;BME280;6052;53.246;10.368;2024-01-27T09:05:47;102754.53;;;7.18;100.00
11985;BME280;6052;53.246;10.368;2024-01-27T09:08:17;102755.31;;;6.86;100.00
11985;BME280;6052;53.246;10.368;2024-01-27T09:10:47;102763.75;;;7.31;100.00
11985;BME280;6052;53.246;10.368;2024-01-27T09:13:20;102761.84;;;7.00;100.00
11985;BME280;6052;53.246;10.368;2024-01-27T09:15:50;102761.03;;;7.07;100.00
11985;BME280;6052;53.246;10.368;2024-01-27T09:18:20;102748.84;;;7.05;100.00
11985;BME280;6052;53.246;10.368;2024-01-27T09:20:53;102747.38;;;7.18;100.00
11985;BME280;6052;53.246;10.368;2024-01-27T09:23:23;102752.84;;;7.09;100.00
11985;BME280;6052;53.246;10.368;2024-01-27T09:25:53;102757.25;;;7.26;100.00
11985;BME280;6052;53.246;10.368;2024-01-27T09:28:26;102751.06;;;7.17;100.00
11985;BME280;6052;53.246;10.368;2024-01-27T09:30:56;102761.59;;;7.51;100.00
11985;BME280;6052;53.246;10.368;2024-01-27T09:33:26;102758.59;;;7.30;100.00
11985;BME280;6052;53.246;10.368;2024-01-27T09:35:57;102760.94;;;7.57;100.00
11985;BME280;6052;53.246;10.368;2024-01-27T09:38:28;102758.94;;;7.51;100.00
11985;BME280;6052;53.246;10.368;2024-01-27T09:40:58;102769.28;;;7.62;100.00
11985;BME280;6052;53.246;10.368;2024-01-27T09:43:31;102767.75;;;7.35;100.00
11985;BME280;6052;53.246;10.368;2024-01-27T09:46:01;102771.63;;;7.41;100.00
11985;BME280;6052;53.246;10.368;2024-01-27T09:48:32;102772.78;;;7.46;100.00
11985;BME280;6052;53.246;10.368;2024-01-27T09:51:04;102764.59;;;7.48;100.00
11985;BME280;6052;53.246;10.368;2024-01-27T09:53:35;102772.63;;;7.56;100.00
11985;BME280;6052;53.246;10.368;2024-01-27T09:56:06;102783.50;;;7.62;100.00
11985;BME280;6052;53.246;10.368;2024-01-27T09:58:40;102772.47;;;7.73;100.00
11985;BME280;6052;53.246;10.368;2024-01-27T10:01:11;102779.47;;;7.74;100.00
11985;BME280;6052;53.246;10.368;2024-01-27T10:03:41;102776.63;;;7.76;100.00
11985;BME280;6052;53.246;10.368;2024-01-27T10:06:11;102771.97;;;7.70;100.00
11985;BME280;6052;53.246;10.368;2024-01-27T10:08:43;102781.00;;;7.69;100.00
11985;BME280;6052;53.246;10.368;2024-01-27T10:11:18;102792.84;;;7.66;100.00
11985;BME280;6052;53.246;10.368;2024-01-27T10:13:56;102790.66;;;7.78;100.00
11985;BME280;6052;53.246;10.368;2024-01-27T10:16:27;102787.50;;;7.66;100.00
11985;BME280;6052;53.246;10.368;2024-01-27T10:19:00;102788.81;;;7.70;100.00
11985;BME280;6052;53.246;10.368;2024-01-27T10:21:31;102789.66;;;7.87;100.00
11985;BME280;6052;53.246;10.368;2024-01-27T10:24:01;102786.16;;;7.94;100.00
11985;BME280;6052;53.246;10.368;2024-01-27T10:26:33;102800.03;;;7.90;100.00
11985;BME280;6052;53.246;10.368;2024-01-27T10:29:06;102799.34;;;7.88;100.00
11985;BME280;6052;53.246;10.368;2024-01-27T10:31:36;102786.81;;;8.04;100.00
11985;BME280;6052;53.246;10.368;2024-01-27T10:34:06;102783.63;;;8.01;100.00
11985;BME280;6052;53.246;10.368;2024-01-27T10:36:43;102781.66;;;8.03;100.00
11985;BME280;6052;53.246;10.368;2024-01-27T10:39:16;102768.25;;;8.19;100.00
11985;BME280;6052;53.246;10.368;2024-01-27T10:41:48;102773.78;;;8.25;100.00
11985;BME280;6052;53.246;10.368;2024-01-27T10:44:21;102772.75;;;8.18;100.00
11985;BME280;6052;53.246;10.368;2024-01-27T10:46:52;102789.31;;;8.22;100.00
11985;BME280;6052;53.246;10.368;2024-01-27T10:49:24;102775.25;;;8.20;100.00
11985;BME280;6052;53.246;10.368;2024-01-27T10:51:55;102782.63;;;8.26;100.00
11985;BME280;6052;53.246;10.368;2024-01-27T10:54:27;102785.09;;;8.43;100.00
11985;BME280;6052;53.246;10.368;2024-01-27T10:56:58;102784.44;;;8.41;100.00
11985;BME280;6052;53.246;10.368;2024-01-27T10:59:35;102788.75;;;8.50;100.00
11985;BME280;6052;53.246;10.368;2024-01-27T11:02:10;102782.94;;;8.47;100.00
11985;BME280;6052;53.246;10.368;2024-01-27T11:04:42;102803.16;;;8.49;100.00
11985;BME280;6052;53.246;10.368;2024-01-27T11:07:13;102793.22;;;8.66;100.00
11985;BME280;6052;53.246;10.368;2024-01-27T11:09:43;102789.41;;;8.60;100.00
11985;BME280;6052;53.246;10.368;2024-01-27T11:12:14;102797.91;;;8.64;100.00
11985;BME280;6052;53.246;10.368;2024-01-27T11:14:47;102802.97;;;8.51;100.00
11985;BME280;6052;53.246;10.368;2024-01-27T11:17:19;102795.13;;;8.49;100.00
11985;BME280;6052;53.246;10.368;2024-01-27T11:19:49;102801.63;;;8.55;100.00
11985;BME280;6052;53.246;10.368;2024-01-27T11:22:29;102803.16;;;8.49;100.00
11985;BME280;6052;53.246;10.368;2024-01-27T11:25:07;102803.09;;;8.65;100.00
11985;BME280;6052;53.246;10.368;2024-01-27T11:27:37;102800.56;;;8.72;100.00
11985;BME280;6052;53.246;10.368;2024-01-27T11:30:25;102796.97;;;8.87;100.00
11985;BME280;6052;53.246;10.368;2024-01-27T11:32:55;102797.88;;;8.72;100.00
11985;BME280;6052;53.246;10.368;2024-01-27T11:35:26;102787.50;;;8.77;100.00
11985;BME280;6052;53.246;10.368;2024-01-27T11:37:56;102789.81;;;8.80;100.00
11985;BME280;6052;53.246;10.368;2024-01-27T11:40:26;102794.91;;;8.67;100.00
11985;BME280;6052;53.246;10.368;2024-01-27T11:42:56;102794.53;;;8.70;100.00
11985;BME280;6052;53.246;10.368;2024-01-27T11:45:30;102808.78;;;8.62;100.00
11985;BME280;6052;53.246;10.368;2024-01-27T11:47:57;102813.31;;;8.62;100.00
11985;BME280;6052;53.246;10.368;2024-01-27T11:50:27;102810.31;;;8.57;100.00
11985;BME280;6052;53.246;10.368;2024-01-27T11:52:57;102808.56;;;8.80;100.00
11985;BME280;6052;53.246;10.368;2024-01-27T11:55:27;102806.88;;;8.87;100.00
11985;BME280;6052;53.246;10.368;2024-01-27T11:57:57;102820.72;;;8.90;100.00
11985;BME280;6052;53.246;10.368;2024-01-27T12:00:29;102823.63;;;9.11;100.00
11985;BME280;6052;53.246;10.368;2024-01-27T12:02:59;102824.19;;;8.99;100.00
11985;BME280;6052;53.246;10.368;2024-01-27T12:05:30;102817.75;;;8.85;100.00
11985;BME280;6052;53.246;10.368;2024-01-27T12:08:01;102813.97;;;9.02;100.00
11985;BME280;6052;53.246;10.368;2024-01-27T12:10:31;102809.59;;;9.09;100.00
11985;BME280;6052;53.246;10.368;2024-01-27T12:13:01;102813.31;;;9.00;100.00
11985;BME280;6052;53.246;10.368;2024-01-27T12:15:33;102819.41;;;8.86;100.00
11985;BME280;6052;53.246;10.368;2024-01-27T12:18:05;102819.06;;;8.89;100.00
11985;BME280;6052;53.246;10.368;2024-01-27T12:20:35;102824.34;;;9.05;100.00
11985;BME280;6052;53.246;10.368;2024-01-27T12:23:06;102815.44;;;9.13;100.00
11985;BME280;6052;53.246;10.368;2024-01-27T12:25:36;102820.63;;;9.14;100.00
11985;BME280;6052;53.246;10.368;2024-01-27T12:28:06;102839.16;;;9.24;100.00
11985;BME280;6052;53.246;10.368;2024-01-27T12:30:40;102832.13;;;9.23;100.00
11985;BME280;6052;53.246;10.368;2024-01-27T12:33:12;102843.94;;;9.06;100.00
11985;BME280;6052;53.246;10.368;2024-01-27T12:35:44;102831.81;;;9.18;100.00
11985;BME280;6052;53.246;10.368;2024-01-27T12:38:15;102841.41;;;9.12;100.00
11985;BME280;6052;53.246;10.368;2024-01-27T12:40:46;102825.09;;;9.22;100.00
11985;BME280;6052;53.246;10.368;2024-01-27T12:43:16;102832.03;;;9.08;100.00
11985;BME280;6052;53.246;10.368;2024-01-27T12:45:49;102835.03;;;9.13;100.00
11985;BME280;6052;53.246;10.368;2024-01-27T12:48:18;102833.16;;;9.14;100.00
11985;BME280;6052;53.246;10.368;2024-01-27T12:50:49;102825.50;;;9.11;100.00
11985;BME280;6052;53.246;10.368;2024-01-27T12:53:20;102816.75;;;9.17;100.00
11985;BME280;6052;53.246;10.368;2024-01-27T12:55:49;102823.47;;;9.13;100.00
11985;BME280;6052;53.246;10.368;2024-01-27T12:58:19;102823.44;;;9.21;100.00
11985;BME280;6052;53.246;10.368;2024-01-27T13:00:52;102816.66;;;9.33;100.00
11985;BME280;6052;53.246;10.368;2024-01-27T13:03:22;102821.31;;;9.39;100.00
11985;BME280;6052;53.246;10.368;2024-01-27T13:05:53;102828.44;;;9.24;100.00
11985;BME280;6052;53.246;10.368;2024-01-27T13:08:24;102820.34;;;9.32;100.00
11985;BME280;6052;53.246;10.368;2024-01-27T13:10:54;102827.03;;;9.36;100.00
11985;BME280;6052;53.246;10.368;2024-01-27T13:13:24;102824.09;;;9.23;100.00